Time;durP1;ratioP1;P1;durP2;ratioP2;P2;SDS_P1;SDS_P2;PMS_P1;PMS_P2;Temp;Humidity;BMP_temperature;BMP_pressure;BME280_temperature;BME280_humidity;BME280_pressure;Samples;Min_cycle;Max_cycle;Signal;HPM_P1;HPM_P2
2023/07/11 00:00:03;;;;;;;4.45;2.05;;;19.00;99.90;;;;;;4881508;29;20100;-69
2023/07/11 00:02:28;;;;;;;4.38;1.90;;;18.90;99.90;;;;;;4881606;29;20048;-68
2023/07/11 00:04:54;;;;;;;5.32;2.20;;;18.90;99.90;;;;;;4898532;29;20036;-69
2023/07/11 00:07:20;;;;;;;8.75;1.95;;;18.90;99.90;;;;;;4881025;29;20088;-69
2023/07/11 00:09:49;;;;;;;5.13;2.00;;;18.90;99.90;;;;;;4898236;29;20151;-68
2023/07/11 00:12:16;;;;;;;4.15;1.85;;;18.90;99.90;;;;;;4898582;29;20139;-68
2023/07/11 00:14:43;;;;;;;6.00;1.88;;;18.90;99.90;;;;;;4898532;29;20060;-69
2023/07/11 00:17:08;;;;;;;11.73;2.05;;;18.90;99.90;;;;;;4898018;29;20568;-68
2023/07/11 00:19:49;;;;;;;6.15;1.88;;;18.90;99.90;;;;;;4897470;29;20053;-69
2023/07/11 00:22:16;;;;;;;4.07;1.80;;;18.80;99.90;;;;;;4897647;29;20060;-69
2023/07/11 00:24:41;;;;;;;6.55;1.90;;;18.80;99.90;;;;;;4880792;29;20053;-69
2023/07/11 00:27:09;;;;;;;8.77;2.10;;;18.80;99.90;;;;;;4898002;29;20063;-69
2023/07/11 00:29:34;;;;;;;6.45;2.20;;;18.90;99.90;;;;;;4903140;23;20080;-72
2023/07/11 00:32:00;;;;;;;6.05;2.10;;;18.80;99.90;;;;;;4898091;29;20091;-72
2023/07/11 00:34:26;;;;;;;6.38;2.28;;;18.70;99.90;;;;;;4898300;29;20061;-72
2023/07/11 00:36:51;;;;;;;5.47;1.95;;;18.80;99.90;;;;;;4896448;29;20100;-72
2023/07/11 00:39:19;;;;;;;6.07;2.17;;;18.70;99.90;;;;;;4879079;29;20056;-72
2023/07/11 00:41:45;;;;;;;6.55;2.20;;;18.70;99.90;;;;;;4897499;29;20060;-72
2023/07/11 00:44:16;;;;;;;5.18;1.92;;;18.70;99.90;;;;;;4862741;29;20128;-72
2023/07/11 00:46:42;;;;;;;5.00;1.80;;;18.80;99.90;;;;;;4878979;29;20072;-72
2023/07/11 00:49:10;;;;;;;10.32;2.03;;;18.70;99.90;;;;;;4862252;29;20061;-72
2023/07/11 00:51:45;;;;;;;4.20;1.77;;;18.70;99.90;;;;;;4878875;29;20080;-72
2023/07/11 00:54:14;;;;;;;5.70;1.90;;;18.70;99.90;;;;;;4879158;29;20549;-72
2023/07/11 00:56:44;;;;;;;3.85;1.80;;;18.60;99.90;;;;;;4880678;29;20120;-72
2023/07/11 00:59:10;;;;;;;4.20;1.75;;;18.60;99.90;;;;;;4897660;29;20142;-72
2023/07/11 01:01:36;;;;;;;5.55;1.90;;;18.60;99.90;;;;;;4880599;29;20091;-72
2023/07/11 01:04:05;;;;;;;7.97;2.10;;;18.60;99.90;;;;;;4880356;29;20056;-72
2023/07/11 01:06:32;;;;;;;8.25;2.10;;;18.50;99.90;;;;;;4897111;29;20056;-72
2023/07/11 01:08:59;;;;;;;5.90;2.60;;;18.50;99.90;;;;;;4864937;29;20053;-72
2023/07/11 01:11:27;;;;;;;9.23;2.55;;;18.50;99.90;;;;;;4897596;29;20052;-72
2023/07/11 01:13:53;;;;;;;4.88;2.40;;;18.40;99.90;;;;;;4865275;29;20459;-72
2023/07/11 01:16:19;;;;;;;7.43;2.50;;;18.50;99.90;;;;;;4891747;29;20049;-72
2023/07/11 01:18:46;;;;;;;7.45;2.90;;;18.40;99.90;;;;;;4879009;29;20092;-72
2023/07/11 01:21:17;;;;;;;5.28;2.33;;;18.40;99.90;;;;;;4861747;29;20068;-72
2023/07/11 01:23:43;;;;;;;4.95;2.25;;;18.50;99.90;;;;;;4861856;29;20132;-72
2023/07/11 01:26:08;;;;;;;9.07;2.72;;;18.40;99.90;;;;;;4861606;29;20144;-72
2023/07/11 01:28:34;;;;;;;6.93;2.00;;;18.40;99.90;;;;;;4861476;29;20164;-72
2023/07/11 01:31:00;;;;;;;11.48;2.95;;;18.50;99.90;;;;;;4861917;29;20057;-72
2023/07/11 01:33:26;;;;;;;10.27;2.55;;;18.30;99.90;;;;;;4861493;29;20088;-72
2023/07/11 01:35:53;;;;;;;6.88;2.80;;;18.30;99.90;;;;;;4861508;29;20069;-72
2023/07/11 01:38:23;;;;;;;7.63;2.83;;;18.40;99.90;;;;;;4861641;29;20053;-72
2023/07/11 01:40:49;;;;;;;9.05;2.88;;;18.30;99.90;;;;;;4861195;29;20425;-72
2023/07/11 01:43:17;;;;;;;5.00;3.15;;;18.20;99.90;;;;;;4846130;29;20471;-72
2023/07/11 01:45:43;;;;;;;6.30;3.10;;;18.20;99.90;;;;;;4861414;29;20060;-72
2023/07/11 01:48:09;;;;;;;7.15;2.85;;;18.20;99.90;;;;;;4876600;29;20500;-72
2023/07/11 01:50:34;;;;;;;9.70;2.88;;;18.10;99.90;;;;;;4845460;29;20060;-72
2023/07/11 01:53:00;;;;;;;9.27;3.22;;;18.10;99.90;;;;;;4861116;29;20115;-72
2023/07/11 01:55:26;;;;;;;8.90;3.53;;;18.10;99.90;;;;;;4861006;29;20053;-72
2023/07/11 01:57:52;;;;;;;6.95;3.55;;;18.10;99.90;;;;;;4878111;29;20079;-72
2023/07/11 02:00:18;;;;;;;8.43;3.38;;;18.10;99.90;;;;;;4877659;29;20057;-72
2023/07/11 02:02:44;;;;;;;11.90;3.55;;;18.00;99.90;;;;;;4860829;29;20497;-72
2023/07/11 02:05:10;;;;;;;8.30;3.20;;;18.00;99.90;;;;;;4877706;29;20060;-72
2023/07/11 02:07:36;;;;;;;8.05;3.00;;;17.90;99.90;;;;;;4877963;29;20060;-72
2023/07/11 02:10:01;;;;;;;6.18;3.35;;;17.90;99.90;;;;;;4877662;29;20473;-72
2023/07/11 02:12:27;;;;;;;7.05;2.90;;;17.80;99.90;;;;;;4877709;29;20434;-72
2023/07/11 02:14:53;;;;;;;10.38;3.92;;;17.80;99.90;;;;;;4844661;29;20056;-72
2023/07/11 02:17:18;;;;;;;8.27;3.33;;;17.80;99.90;;;;;;4877301;29;20060;-72
2023/07/11 02:19:44;;;;;;;6.25;3.83;;;17.80;99.90;;;;;;4860683;29;20049;-72
2023/07/11 02:22:11;;;;;;;8.65;3.78;;;17.80;99.90;;;;;;4860617;29;20057;-72
2023/07/11 02:24:39;;;;;;;7.38;3.97;;;17.70;99.90;;;;;;4845358;29;20407;-72
2023/07/11 02:27:06;;;;;;;9.27;3.97;;;17.80;99.90;;;;;;4877368;29;20133;-72
2023/07/11 02:29:32;;;;;;;7.80;3.70;;;17.80;99.90;;;;;;4877773;29;20060;-72
2023/07/11 02:31:57;;;;;;;8.27;3.80;;;17.80;99.90;;;;;;4860648;29;20053;-72
2023/07/11 02:34:23;;;;;;;8.20;3.78;;;17.80;99.90;;;;;;4860810;29;20067;-72
2023/07/11 02:36:49;;;;;;;8.75;3.85;;;17.80;99.90;;;;;;4860590;29;20061;-72
2023/07/11 02:39:15;;;;;;;8.57;4.30;;;17.80;99.90;;;;;;4860385;29;20063;-72
2023/07/11 02:41:40;;;;;;;8.18;4.05;;;17.80;99.90;;;;;;4860297;29;20059;-72
2023/07/11 02:44:06;;;;;;;6.03;3.58;;;17.80;99.90;;;;;;4860501;29;20064;-72
2023/07/11 02:46:32;;;;;;;11.38;3.95;;;17.70;99.90;;;;;;4844340;29;20056;-72
2023/07/11 02:48:58;;;;;;;6.65;3.70;;;17.70;99.90;;;;;;4860216;29;20092;-72
2023/07/11 02:51:24;;;;;;;10.40;4.35;;;17.80;99.90;;;;;;4876908;29;20084;-72
2023/07/11 02:53:50;;;;;;;8.18;3.65;;;17.80;99.90;;;;;;4876871;29;20088;-72
2023/07/11 02:56:17;;;;;;;7.75;3.40;;;17.70;99.90;;;;;;4875441;29;20077;-72
2023/07/11 02:58:44;;;;;;;10.15;3.95;;;17.80;99.90;;;;;;4876962;29;20795;-72
2023/07/11 03:01:09;;;;;;;6.82;4.00;;;17.80;99.90;;;;;;4860008;29;20441;-72
2023/07/11 03:03:35;;;;;;;8.13;3.80;;;17.70;99.90;;;;;;4860205;29;20136;-72
2023/07/11 03:06:01;;;;;;;12.68;4.03;;;17.70;99.90;;;;;;4877327;29;20135;-72
2023/07/11 03:08:27;;;;;;;8.70;4.10;;;17.70;99.90;;;;;;4876904;29;20390;-72
2023/07/11 03:10:57;;;;;;;7.65;3.85;;;17.80;99.90;;;;;;4876904;29;20057;-72
2023/07/11 03:13:22;;;;;;;13.60;3.92;;;17.70;99.90;;;;;;4860524;29;20143;-72
2023/07/11 03:15:48;;;;;;;14.48;4.43;;;17.80;99.90;;;;;;4859720;29;20053;-72
2023/07/11 03:18:14;;;;;;;8.40;3.92;;;17.70;99.90;;;;;;4860236;29;20095;-72
2023/07/11 03:20:41;;;;;;;13.27;5.32;;;17.70;99.90;;;;;;4859928;29;20057;-72
2023/07/11 03:23:08;;;;;;;7.47;3.63;;;17.60;99.90;;;;;;4860003;29;20147;-72
2023/07/11 03:25:35;;;;;;;8.15;4.03;;;17.60;99.90;;;;;;4859760;29;20065;-72
2023/07/11 03:28:01;;;;;;;10.07;3.95;;;17.50;99.90;;;;;;4878762;29;20050;-71
2023/07/11 03:30:27;;;;;;;10.07;3.90;;;17.50;99.90;;;;;;4863515;29;20059;-72
2023/07/11 03:32:53;;;;;;;6.75;4.20;;;17.60;99.90;;;;;;4863352;29;20145;-72
2023/07/11 03:35:18;;;;;;;8.85;4.10;;;17.50;99.90;;;;;;4863453;29;20053;-72
2023/07/11 03:37:44;;;;;;;9.85;4.00;;;17.50;99.90;;;;;;4880338;29;20045;-72
2023/07/11 03:40:10;;;;;;;8.27;4.32;;;17.50;99.90;;;;;;4863182;29;20060;-72
2023/07/11 03:42:36;;;;;;;10.15;4.82;;;17.50;99.90;;;;;;4863307;29;20041;-72
2023/07/11 03:45:02;;;;;;;8.40;4.50;;;17.50;99.90;;;;;;4863071;29;20416;-72
2023/07/11 03:47:28;;;;;;;12.65;4.53;;;17.50;99.90;;;;;;4863575;29;20040;-72
2023/07/11 03:49:53;;;;;;;12.13;4.28;;;17.40;99.90;;;;;;4863236;29;20507;-72
2023/07/11 03:52:19;;;;;;;9.00;4.30;;;17.50;99.90;;;;;;4863187;29;20059;-72
2023/07/11 03:54:45;;;;;;;7.32;3.78;;;17.60;99.90;;;;;;4863197;29;20405;-72
2023/07/11 03:57:11;;;;;;;4.88;3.83;;;17.50;99.90;;;;;;4879792;29;20057;-72
2023/07/11 03:59:36;;;;;;;14.45;4.75;;;17.50;99.90;;;;;;4879535;29;20085;-72
2023/07/11 04:02:02;;;;;;;8.35;4.00;;;17.50;99.90;;;;;;4863069;29;20136;-72
2023/07/11 04:04:28;;;;;;;10.90;4.38;;;17.60;99.90;;;;;;4863021;29;20057;-72
2023/07/11 04:06:54;;;;;;;13.10;4.82;;;17.70;99.90;;;;;;4863033;29;20060;-72
2023/07/11 04:09:19;;;;;;;8.50;4.70;;;17.70;99.90;;;;;;4862894;29;20041;-72
2023/07/11 04:11:45;;;;;;;7.50;4.65;;;17.70;99.90;;;;;;4863002;29;20144;-72
2023/07/11 04:14:11;;;;;;;8.57;4.30;;;17.70;99.90;;;;;;4862739;29;20060;-72
2023/07/11 04:16:36;;;;;;;9.43;4.22;;;17.80;99.90;;;;;;4878676;29;20398;-72
2023/07/11 04:19:02;;;;;;;10.32;4.45;;;17.80;99.90;;;;;;4892068;29;20157;-72
2023/07/11 04:21:28;;;;;;;8.25;4.25;;;17.80;99.90;;;;;;4881718;29;20512;-72
2023/07/11 04:23:54;;;;;;;12.02;4.75;;;17.80;99.90;;;;;;4881380;29;20091;-72
2023/07/11 04:26:19;;;;;;;12.23;4.10;;;17.80;99.90;;;;;;4880944;29;20476;-72
2023/07/11 04:28:45;;;;;;;6.50;3.58;;;17.90;99.90;;;;;;4897826;29;20053;-72
2023/07/11 04:31:11;;;;;;;8.95;4.25;;;17.90;99.90;;;;;;4898205;29;20059;-72
2023/07/11 04:33:36;;;;;;;6.72;3.97;;;18.10;99.90;;;;;;4881321;29;20412;-72
2023/07/11 04:36:11;;;;;;;8.48;4.07;;;18.10;99.90;;;;;;4881085;29;20056;-72
2023/07/11 04:38:38;;;;;;;8.43;4.32;;;18.20;99.90;;;;;;4875361;29;20049;-72
2023/07/11 04:41:05;;;;;;;8.10;4.00;;;18.20;99.90;;;;;;4862065;29;20118;-72
2023/07/11 04:43:33;;;;;;;5.32;3.97;;;18.30;99.90;;;;;;4861900;29;20132;-72
2023/07/11 04:46:00;;;;;;;8.73;4.18;;;18.40;99.90;;;;;;4862560;29;20057;-72
2023/07/11 04:48:26;;;;;;;6.93;3.75;;;18.40;99.90;;;;;;4862516;29;20469;-72
2023/07/11 04:51:02;;;;;;;8.07;4.50;;;18.50;99.90;;;;;;4862498;29;20125;-72
2023/07/11 04:53:29;;;;;;;7.05;3.92;;;18.50;99.90;;;;;;4862299;29;20130;-72
2023/07/11 04:56:03;;;;;;;7.03;3.85;;;18.40;99.90;;;;;;4862380;29;20420;-72
2023/07/11 04:58:30;;;;;;;11.38;4.65;;;18.60;99.90;;;;;;4862136;29;20064;-72
2023/07/11 05:01:06;;;;;;;11.68;4.07;;;18.60;99.90;;;;;;4862387;29;20754;-72
2023/07/11 05:03:32;;;;;;;9.95;4.38;;;18.60;99.90;;;;;;4878621;29;20061;-72
2023/07/11 05:05:58;;;;;;;10.23;4.38;;;18.60;99.90;;;;;;4862146;29;20057;-72
2023/07/11 05:08:24;;;;;;;8.77;3.90;;;18.60;99.90;;;;;;4878385;29;20420;-72
2023/07/11 05:11:02;;;;;;;7.88;3.90;;;18.60;99.90;;;;;;4861737;29;20095;-72
2023/07/11 05:13:30;;;;;;;9.00;3.92;;;18.50;99.90;;;;;;4878454;29;20061;-72
2023/07/11 05:16:05;;;;;;;7.55;4.38;;;18.50;99.90;;;;;;4861732;29;20053;-72
2023/07/11 05:18:31;;;;;;;6.05;4.00;;;18.60;99.90;;;;;;4861864;29;20142;-72
2023/07/11 05:20:58;;;;;;;8.85;4.25;;;18.80;99.90;;;;;;4878781;29;20057;-72
2023/07/11 05:23:29;;;;;;;7.97;3.92;;;19.00;99.90;;;;;;4862426;29;20453;-72
2023/07/11 05:25:55;;;;;;;7.57;4.10;;;19.30;99.90;;;;;;4861672;29;20053;-72
2023/07/11 05:28:22;;;;;;;6.55;3.92;;;19.30;99.90;;;;;;4878333;29;20844;-72
2023/07/11 05:30:48;;;;;;;10.10;4.22;;;19.50;99.90;;;;;;4878820;29;20060;-72
2023/07/11 05:33:15;;;;;;;7.32;3.67;;;19.70;99.90;;;;;;4878455;29;20417;-72
2023/07/11 05:38:25;;;;;;;5.88;3.65;;;20.00;99.90;;;;;;4891725;29;20075;-72
2023/07/11 05:40:51;;;;;;;10.32;4.15;;;20.10;99.90;;;;;;4898334;29;20098;-72
2023/07/11 05:43:17;;;;;;;7.03;3.78;;;20.20;99.90;;;;;;4898704;29;20064;-72
2023/07/11 05:45:43;;;;;;;11.60;4.22;;;20.30;99.90;;;;;;4915505;29;20406;-72
2023/07/11 05:48:09;;;;;;;7.07;3.75;;;20.40;99.90;;;;;;4898313;29;20051;-72
2023/07/11 05:50:35;;;;;;;6.93;3.38;;;20.40;99.90;;;;;;4897744;29;20115;-72
2023/07/11 05:53:01;;;;;;;10.85;4.78;;;20.60;99.90;;;;;;4898481;29;20464;-72
2023/07/11 05:55:26;;;;;;;7.10;3.85;;;20.80;99.90;;;;;;4898536;29;20067;-76
2023/07/11 05:57:52;;;;;;;6.13;3.10;;;20.80;99.90;;;;;;4915481;29;20099;-75
2023/07/11 06:00:18;;;;;;;7.75;3.55;;;20.80;99.90;;;;;;4914995;29;20052;-75
2023/07/11 06:02:44;;;;;;;4.63;3.15;;;20.80;99.90;;;;;;4915586;29;20044;-75
2023/07/11 06:05:10;;;;;;;8.25;3.72;;;20.80;99.90;;;;;;4915179;29;20063;-75
2023/07/11 06:07:35;;;;;;;5.93;3.30;;;20.80;99.90;;;;;;4915444;29;20107;-75
2023/07/11 06:10:02;;;;;;;7.05;3.20;;;20.80;99.90;;;;;;4916056;29;20131;-74
2023/07/11 06:12:27;;;;;;;6.10;3.53;;;20.90;99.90;;;;;;4909575;29;20135;-74
2023/07/11 06:14:53;;;;;;;8.73;2.97;;;21.00;99.90;;;;;;4918142;29;20530;-75
2023/07/11 06:17:19;;;;;;;5.63;3.17;;;21.10;99.90;;;;;;4904779;29;20067;-75
2023/07/11 06:19:44;;;;;;;5.90;3.75;;;21.30;99.90;;;;;;4892185;29;20552;-74
2023/07/11 06:22:10;;;;;;;7.70;2.85;;;21.40;99.90;;;;;;4903680;29;20318;-75
2023/07/11 06:24:37;;;;;;;14.45;3.10;;;21.50;99.90;;;;;;4893828;29;20148;-75
2023/07/11 06:27:03;;;;;;;9.52;3.10;;;21.40;99.90;;;;;;4883589;29;20049;-75
2023/07/11 06:29:30;;;;;;;5.70;3.00;;;21.40;99.90;;;;;;4899498;29;20062;-75
2023/07/11 06:31:56;;;;;;;7.80;2.95;;;21.40;99.90;;;;;;4896172;29;20508;-75
2023/07/11 06:34:22;;;;;;;4.25;2.60;;;21.50;99.90;;;;;;4879249;29;20063;-75
2023/07/11 06:36:47;;;;;;;8.48;3.08;;;21.50;99.90;;;;;;4895722;29;20077;-75
2023/07/11 06:39:13;;;;;;;6.47;2.97;;;21.50;99.90;;;;;;4878873;29;20058;-75
2023/07/11 06:41:39;;;;;;;6.85;2.88;;;21.50;99.90;;;;;;4896090;29;20080;-77
2023/07/11 06:44:08;;;;;;;4.90;2.60;;;21.60;99.90;;;;;;4889681;29;20554;-74
2023/07/11 06:46:35;;;;;;;4.20;2.42;;;21.60;99.90;;;;;;4865080;29;20064;-74
2023/07/11 06:49:02;;;;;;;5.40;2.72;;;21.60;99.90;;;;;;4893207;29;20088;-74
2023/07/11 06:51:28;;;;;;;8.55;3.15;;;21.60;99.90;;;;;;4895723;29;20128;-73
2023/07/11 06:53:54;;;;;;;9.50;3.45;;;21.60;99.90;;;;;;4878496;29;20052;-74
2023/07/11 06:56:20;;;;;;;6.38;3.25;;;21.60;99.90;;;;;;4878944;29;20472;-73
2023/07/11 06:58:47;;;;;;;5.25;2.53;;;21.70;99.90;;;;;;4889856;29;20049;-72
2023/07/11 07:01:14;;;;;;;6.55;3.05;;;21.80;99.90;;;;;;4876816;29;20127;-72
2023/07/11 07:03:40;;;;;;;7.40;3.20;;;21.80;99.90;;;;;;4877139;29;20476;-72
2023/07/11 07:06:10;;;;;;;8.98;3.60;;;21.80;99.90;;;;;;4877018;29;20076;-72
2023/07/11 07:08:36;;;;;;;8.25;3.03;;;22.00;99.90;;;;;;4876707;29;20053;-72
2023/07/11 07:11:02;;;;;;;7.43;2.58;;;22.10;99.90;;;;;;4876996;29;20139;-71
2023/07/11 07:13:27;;;;;;;9.98;3.15;;;22.30;99.90;;;;;;4876946;29;20130;-72
2023/07/11 07:15:56;;;;;;;10.88;3.10;;;22.40;99.90;;;;;;4860048;29;20061;-72
2023/07/11 07:18:22;;;;;;;5.53;2.92;;;22.30;99.90;;;;;;4877032;29;20064;-72
2023/07/11 07:20:50;;;;;;;6.20;2.97;;;22.40;99.90;;;;;;4860016;29;20061;-72
2023/07/11 07:23:16;;;;;;;5.80;3.17;;;22.50;99.90;;;;;;4876933;29;20049;-72
2023/07/11 07:25:49;;;;;;;5.35;3.13;;;22.60;99.90;;;;;;4859649;29;20116;-72
2023/07/11 07:28:15;;;;;;;7.97;3.47;;;22.60;99.90;;;;;;4865566;29;20045;-72
2023/07/11 07:30:46;;;;;;;6.53;2.83;;;22.70;99.90;;;;;;4881496;29;20568;-73
2023/07/11 07:33:11;;;;;;;8.73;2.92;;;22.80;99.90;;;;;;4895425;29;20048;-72
2023/07/11 07:35:37;;;;;;;4.75;2.90;;;22.90;99.90;;;;;;4893624;29;20067;-72
2023/07/11 07:38:03;;;;;;;8.38;3.20;;;22.90;99.90;;;;;;4886296;29;20067;-72
2023/07/11 07:40:29;;;;;;;5.55;3.40;;;23.00;99.90;;;;;;4885953;29;20464;-72
2023/07/11 07:42:55;;;;;;;8.15;3.17;;;23.00;99.90;;;;;;4885735;29;20053;-71
2023/07/11 07:45:20;;;;;;;4.72;3.20;;;23.10;99.90;;;;;;4884655;29;20068;-72
2023/07/11 07:47:46;;;;;;;6.43;2.85;;;23.20;99.90;;;;;;4872919;29;20056;-73
2023/07/11 07:50:12;;;;;;;4.95;3.00;;;23.40;99.90;;;;;;4878718;29;20157;-72
2023/07/11 07:52:37;;;;;;;6.63;3.15;;;23.30;99.90;;;;;;4878122;29;20055;-72
2023/07/11 07:55:03;;;;;;;5.47;2.63;;;23.60;99.90;;;;;;4895323;29;20052;-71
2023/07/11 07:57:29;;;;;;;8.90;2.95;;;23.80;99.90;;;;;;4894936;29;20041;-72
2023/07/11 07:59:55;;;;;;;9.43;2.95;;;23.80;99.90;;;;;;4895607;29;20055;-72
2023/07/11 08:02:21;;;;;;;8.20;3.05;;;23.80;99.90;;;;;;4878550;29;20060;-72
2023/07/11 08:04:48;;;;;;;5.82;2.63;;;24.00;99.90;;;;;;4895262;29;20053;-69
2023/07/11 08:07:14;;;;;;;6.03;3.20;;;24.20;99.90;;;;;;4886755;29;20053;-68
2023/07/11 08:09:41;;;;;;;8.30;3.38;;;24.50;99.90;;;;;;4884415;29;20148;-69
2023/07/11 08:12:11;;;;;;;4.60;2.47;;;24.60;99.90;;;;;;4885423;29;20133;-69
2023/07/11 08:14:38;;;;;;;7.57;2.58;;;24.70;99.90;;;;;;4889057;29;20500;-69
2023/07/11 08:17:05;;;;;;;7.57;3.05;;;24.80;99.90;;;;;;4879941;29;20404;-69
2023/07/11 08:19:31;;;;;;;8.70;2.90;;;24.80;99.90;;;;;;4879712;29;20056;-68
2023/07/11 08:21:57;;;;;;;7.40;2.88;;;24.80;99.90;;;;;;4879697;29;20053;-68
2023/07/11 08:24:23;;;;;;;6.60;2.25;;;24.90;99.90;;;;;;4879651;29;20055;-69
2023/07/11 08:26:50;;;;;;;13.40;2.85;;;25.20;99.90;;;;;;4887393;29;20120;-67
2023/07/11 08:29:16;;;;;;;5.03;2.50;;;25.20;99.90;;;;;;4896506;29;20060;-66
2023/07/11 08:31:41;;;;;;;6.80;2.47;;;25.20;99.90;;;;;;4896391;29;20440;-66
2023/07/11 08:34:07;;;;;;;8.57;2.03;;;25.30;99.90;;;;;;4879161;29;20049;-66
2023/07/11 08:36:33;;;;;;;5.47;2.10;;;25.40;99.90;;;;;;4880702;29;20052;-66
2023/07/11 08:38:58;;;;;;;5.43;2.55;;;25.50;99.90;;;;;;4880434;29;20064;-66
2023/07/11 08:41:48;;;;;;;8.38;2.50;;;25.70;99.90;;;;;;4898052;29;20086;-66
2023/07/11 08:44:24;;;;;;;7.85;2.08;;;25.70;99.90;;;;;;4898355;29;20108;-66
2023/07/11 08:47:10;;;;;;;4.40;2.10;;;25.80;99.90;;;;;;4898262;29;20048;-66
2023/07/11 08:49:57;;;;;;;10.57;2.25;;;25.80;99.90;;;;;;4898115;29;20384;-66
2023/07/11 08:52:25;;;;;;;5.28;2.47;;;25.90;99.90;;;;;;4898151;29;20403;-66
2023/07/11 08:54:59;;;;;;;6.45;2.90;;;26.10;99.90;;;;;;4897980;29;20056;-66
2023/07/11 08:57:29;;;;;;;5.55;2.45;;;26.20;99.90;;;;;;4897797;29;20063;-68
2023/07/11 09:00:23;;;;;;;6.55;2.10;;;26.20;99.90;;;;;;4878276;29;20060;-68
2023/07/11 09:03:16;;;;;;;7.55;2.60;;;26.30;99.90;;;;;;4912251;29;20062;-68
2023/07/11 09:05:55;;;;;;;4.82;2.10;;;26.40;99.90;;;;;;4878419;29;20053;-68
2023/07/11 09:08:21;;;;;;;8.10;2.17;;;26.40;99.90;;;;;;4891391;29;20052;-68
2023/07/11 09:11:00;;;;;;;5.13;2.60;;;26.60;99.90;;;;;;4880443;29;20072;-68
2023/07/11 09:13:48;;;;;;;6.50;2.08;;;26.60;99.90;;;;;;4897456;29;20063;-67
2023/07/11 09:16:35;;;;;;;7.65;2.22;;;26.60;99.90;;;;;;4864224;29;20104;-67
2023/07/11 09:19:35;;;;;;;5.95;1.95;;;26.40;99.90;;;;;;4878484;29;20538;-69
2023/07/11 09:22:17;;;;;;;10.00;2.42;;;26.50;99.90;;;;;;4894628;29;20128;-68
2023/07/11 09:25:07;;;;;;;4.40;1.85;;;26.70;99.90;;;;;;4896805;29;20053;-68
2023/07/11 09:27:39;;;;;;;39.13;3.95;;;26.60;99.90;;;;;;4878256;29;20065;-68
2023/07/11 09:30:31;;;;;;;27.65;3.30;;;26.80;99.90;;;;;;4898226;29;20063;-67
2023/07/11 09:33:17;;;;;;;;;;;27.00;99.90;;;;;;4915975;29;20056;-67
2023/07/11 09:35:45;;;;;;;6.25;2.20;;;26.90;99.90;;;;;;4871564;29;20395;-67
2023/07/11 09:38:21;;;;;;;7.10;2.20;;;27.00;99.90;;;;;;4893122;29;20092;-68
2023/07/11 09:41:10;;;;;;;7.50;2.13;;;27.00;99.90;;;;;;4896372;29;20619;-67
2023/07/11 09:43:35;;;;;;;9.23;1.88;;;27.00;99.90;;;;;;4895951;29;20060;-67
2023/07/11 09:46:01;;;;;;;4.28;2.03;;;27.10;99.90;;;;;;4913184;29;20052;-67
2023/07/11 09:48:31;;;;;;;6.63;1.90;;;27.20;99.90;;;;;;4915339;29;20059;-67
2023/07/11 09:51:24;;;;;;;3.95;1.70;;;27.30;99.90;;;;;;4898348;29;20065;-67
2023/07/11 09:53:55;;;;;;;4.45;1.67;;;27.30;99.90;;;;;;4896385;29;20068;-67
2023/07/11 09:56:23;;;;;;;2.63;1.30;;;27.40;99.90;;;;;;4896586;29;20056;-67
2023/07/11 09:59:00;;;;;;;5.20;1.60;;;27.50;99.90;;;;;;4879461;29;20048;-67
2023/07/11 10:01:30;;;;;;;5.43;1.77;;;27.50;99.90;;;;;;4896238;29;20139;-67
2023/07/11 10:03:58;;;;;;;4.68;2.17;;;27.50;99.60;;;;;;4879084;29;20472;-66
2023/07/11 10:06:35;;;;;;;6.10;1.60;;;27.50;99.90;;;;;;4895961;29;20056;-67
2023/07/11 10:09:14;;;;;;;3.40;1.52;;;27.50;99.80;;;;;;4879585;29;20048;-67
2023/07/11 10:11:40;;;;;;;8.25;2.22;;;27.50;99.80;;;;;;4896516;29;20059;-68
2023/07/11 10:14:16;;;;;;;3.38;1.27;;;27.50;99.90;;;;;;4908723;29;20053;-68
2023/07/11 10:16:41;;;;;;;4.97;1.65;;;27.60;99.70;;;;;;4895738;29;20088;-67
2023/07/11 10:19:14;;;;;;;4.65;1.45;;;27.80;99.90;;;;;;4896736;29;20080;-67
2023/07/11 10:21:45;;;;;;;8.20;1.52;;;27.80;99.00;;;;;;4896373;29;20092;-66
2023/07/11 10:24:22;;;;;;;5.00;1.80;;;27.80;99.80;;;;;;4879247;29;20088;-67
2023/07/11 10:26:54;;;;;;;3.85;1.50;;;27.80;99.60;;;;;;4878994;29;20453;-66
2023/07/11 10:29:24;;;;;;;3.78;1.38;;;27.90;99.60;;;;;;4895957;29;20048;-67
2023/07/11 10:31:55;;;;;;;6.25;1.67;;;27.90;99.80;;;;;;4895788;29;20100;-67
2023/07/11 10:34:30;;;;;;;4.38;1.60;;;27.90;99.60;;;;;;4896132;29;20123;-68
2023/07/11 10:37:12;;;;;;;3.72;1.52;;;27.90;99.30;;;;;;4878953;29;20139;-67
2023/07/11 10:39:50;;;;;;;6.45;1.83;;;27.90;99.50;;;;;;4895906;29;20056;-67
2023/07/11 10:42:42;;;;;;;5.05;1.42;;;28.00;99.40;;;;;;4874204;29;20055;-67
2023/07/11 10:45:08;;;;;;;7.03;1.45;;;28.00;99.40;;;;;;4895499;29;20080;-67
2023/07/11 10:47:38;;;;;;;2.55;1.33;;;28.10;99.80;;;;;;4895611;29;20063;-67
2023/07/11 10:50:17;;;;;;;8.70;1.95;;;28.10;99.90;;;;;;4895762;29;20060;-67
2023/07/11 10:52:46;;;;;;;4.60;1.73;;;28.00;99.50;;;;;;4895544;29;20135;-67
2023/07/11 10:55:17;;;;;;;5.40;1.92;;;28.00;99.50;;;;;;4895736;29;20067;-70
2023/07/11 10:57:50;;;;;;;5.82;1.95;;;28.00;99.70;;;;;;4895645;29;20132;-70
2023/07/11 11:00:17;;;;;;;4.60;2.20;;;28.10;99.90;;;;;;4878570;29;20401;-70
2023/07/11 11:03:34;;;;;;;5.35;1.80;;;28.20;99.80;;;;;;4895578;29;20445;-69
2023/07/11 11:06:35;;;;;;;5.07;1.60;;;28.20;99.90;;;;;;4904525;29;20048;-70
2023/07/11 11:09:18;;;;;;;4.68;1.88;;;28.20;99.90;;;;;;4895236;29;20060;-69
2023/07/11 11:11:53;;;;;;;5.18;1.65;;;28.30;99.40;;;;;;4895736;29;20056;-69
2023/07/11 11:14:28;;;;;;;4.95;1.67;;;28.20;99.80;;;;;;4895511;29;20824;-69
2023/07/11 11:17:02;;;;;;;5.00;1.60;;;28.20;99.50;;;;;;4887114;29;20052;-70
2023/07/11 11:19:49;;;;;;;5.72;1.38;;;28.30;99.90;;;;;;4886021;29;20085;-70
2023/07/11 11:22:47;;;;;;;4.28;1.88;;;28.30;99.40;;;;;;4886368;29;20181;-70
2023/07/11 11:25:26;;;;;;;3.65;1.38;;;28.20;99.60;;;;;;4886147;29;20073;-70
2023/07/11 11:28:29;;;;;;;3.40;1.30;;;28.30;99.50;;;;;;4883880;29;20061;-70
2023/07/11 11:31:24;;;;;;;7.32;1.88;;;28.50;99.70;;;;;;4864943;29;20064;-69
2023/07/11 11:34:24;;;;;;;5.50;1.50;;;28.50;99.20;;;;;;4876527;29;20057;-70
2023/07/11 11:37:08;;;;;;;5.32;1.40;;;28.40;99.00;;;;;;4860033;29;20410;-70
2023/07/11 11:40:03;;;;;;;6.47;1.60;;;28.50;99.40;;;;;;4859904;29;20132;-68
2023/07/11 11:42:33;;;;;;;2.92;1.60;;;28.50;99.70;;;;;;4876614;29;20793;-68
2023/07/11 11:45:14;;;;;;;5.88;1.63;;;28.60;99.80;;;;;;4886156;29;20108;-68
2023/07/11 11:47:40;;;;;;;3.83;1.60;;;28.50;99.40;;;;;;4869937;29;20055;-69
2023/07/11 11:50:14;;;;;;;3.33;1.70;;;28.60;99.30;;;;;;4895402;29;20293;-70
2023/07/11 11:52:39;;;;;;;5.80;2.08;;;28.60;99.70;;;;;;4898931;29;20804;-68
2023/07/11 11:55:36;;;;;;;5.45;1.50;;;28.60;99.90;;;;;;4898932;29;20135;-67
2023/07/11 11:58:02;;;;;;;7.00;2.03;;;28.60;99.20;;;;;;4866510;29;20096;-69
2023/07/11 12:00:46;;;;;;;8.27;1.80;;;28.80;99.60;;;;;;4881625;29;20080;-69
2023/07/11 12:03:35;;;;;;;3.42;1.42;;;28.70;99.00;;;;;;4898541;29;20045;-69
2023/07/11 12:06:22;;;;;;;5.35;1.65;;;28.70;99.10;;;;;;4893357;29;20150;-69
2023/07/11 12:09:16;;;;;;;11.35;1.58;;;28.70;99.70;;;;;;4881502;29;20256;-69
2023/07/11 12:12:07;;;;;;;4.05;1.60;;;28.80;99.50;;;;;;4881619;29;20494;-69
2023/07/11 12:14:57;;;;;;;4.30;1.50;;;28.70;99.90;;;;;;4898420;29;20115;-69
2023/07/11 12:17:29;;;;;;;4.15;1.55;;;28.80;99.10;;;;;;4881518;29;20428;-69
2023/07/11 12:20:01;;;;;;;6.18;1.48;;;28.70;99.50;;;;;;4898355;29;20040;-69
2023/07/11 12:22:32;;;;;;;6.38;1.60;;;28.60;99.70;;;;;;4881556;29;20107;-69
2023/07/11 12:25:13;;;;;;;6.80;1.80;;;28.50;99.20;;;;;;4881554;29;20052;-69
2023/07/11 12:27:39;;;;;;;6.40;1.70;;;28.60;99.50;;;;;;4898275;29;20372;-69
2023/07/11 12:30:14;;;;;;;5.93;1.80;;;28.70;99.40;;;;;;4897984;29;20140;-69
2023/07/11 12:32:48;;;;;;;3.45;1.67;;;28.80;99.40;;;;;;4898392;29;20124;-69
2023/07/11 12:35:20;;;;;;;2.97;1.27;;;28.70;98.10;;;;;;4881214;29;20049;-69
2023/07/11 12:38:14;;;;;;;7.15;2.08;;;28.80;97.40;;;;;;4881382;29;20527;-69
2023/07/11 12:40:52;;;;;;;3.80;1.45;;;28.60;97.50;;;;;;4879620;29;20116;-69
2023/07/11 12:43:24;;;;;;;3.80;1.88;;;28.70;98.00;;;;;;4897938;29;20049;-69
2023/07/11 12:45:57;;;;;;;5.20;1.33;;;28.70;98.20;;;;;;4898102;29;20045;-69
2023/07/11 12:48:31;;;;;;;4.78;1.83;;;28.70;97.90;;;;;;4898006;29;20036;-69
2023/07/11 12:51:01;;;;;;;6.10;1.88;;;28.70;97.10;;;;;;4898063;29;20409;-69
2023/07/11 12:53:29;;;;;;;5.10;1.83;;;28.70;97.50;;;;;;4897968;29;20064;-70
2023/07/11 12:55:54;;;;;;;3.78;1.90;;;28.60;97.50;;;;;;4897456;29;20045;-69
2023/07/11 12:58:24;;;;;;;4.13;1.80;;;28.60;97.50;;;;;;4880628;29;20469;-69
2023/07/11 13:00:52;;;;;;;4.30;1.70;;;28.60;97.20;;;;;;4897303;29;20064;-69
2023/07/11 13:03:24;;;;;;;5.32;1.73;;;28.70;97.90;;;;;;4897380;29;20412;-69